Time;durP1;ratioP1;P1;durP2;ratioP2;P2;SDS_P1;SDS_P2;PMS_P1;PMS_P2;Temp;Humidity;BMP_temperature;BMP_pressure;BME280_temperature;BME280_humidity;BME280_pressure;Samples;Min_cycle;Max_cycle;Signal;HPM_P1;HPM_P2
2022/03/23 00:00:34;;;;;;;26.27;16.80;;;;;;;6.09;46.34;101965.58;1698784;82;21326;-72
2022/03/23 00:03:03;;;;;;;26.17;17.07;;;;;;;6.13;46.24;101959.58;1658394;84;21077;-72
2022/03/23 00:05:30;;;;;;;29.93;17.40;;;;;;;6.15;46.18;101961.12;1655998;84;21257;-72
2022/03/23 00:08:00;;;;;;;27.17;17.97;;;;;;;6.17;46.19;101953.91;1661823;84;21042;-72
2022/03/23 00:10:28;;;;;;;26.93;17.37;;;;;;;6.18;46.25;101956.09;1665960;84;21093;-72
2022/03/23 00:12:57;;;;;;;28.70;19.20;;;;;;;6.15;46.62;101955.83;1671042;84;21113;-72
2022/03/23 00:15:24;;;;;;;31.27;19.47;;;;;;;6.11;46.85;101957.53;1668349;84;21074;-72
2022/03/23 00:17:52;;;;;;;26.50;19.33;;;;;;;5.99;47.16;101956.20;1663092;84;21153;-72
2022/03/23 00:20:22;;;;;;;27.37;17.67;;;;;;;5.89;47.29;101956.49;1663754;84;21325;-72
2022/03/23 00:22:51;;;;;;;28.17;17.40;;;;;;;5.79;47.46;101947.09;1677440;83;21030;-72
2022/03/23 00:25:18;;;;;;;28.73;19.40;;;;;;;5.72;47.75;101943.23;1681004;83;21597;-72
2022/03/23 00:27:46;;;;;;;28.63;18.07;;;;;;;5.62;47.95;101936.97;1659863;85;21098;-71
2022/03/23 00:30:13;;;;;;;29.87;18.60;;;;;;;5.57;48.05;101939.95;1632981;86;21148;-72
2022/03/23 00:32:41;;;;;;;29.63;19.37;;;;;;;5.53;48.27;101937.17;1632139;85;21074;-72
2022/03/23 00:35:10;;;;;;;27.67;19.23;;;;;;;5.49;48.47;101937.05;1672739;85;21556;-71
2022/03/23 00:37:37;;;;;;;29.13;20.30;;;;;;;5.44;48.69;101931.25;1658149;85;21077;-73
2022/03/23 00:40:05;;;;;;;32.60;21.43;;;;;;;5.39;49.01;101927.66;1676549;85;21019;-73
2022/03/23 00:42:31;;;;;;;31.67;20.73;;;;;;;5.32;49.42;101929.55;1616512;88;21451;-72
2022/03/23 00:44:59;;;;;;;31.57;21.40;;;;;;;5.20;49.64;101925.55;1644975;86;21573;-72
2022/03/23 00:47:27;;;;;;;30.60;22.17;;;;;;;4.98;49.72;101905.63;1630765;86;21043;-72
2022/03/23 00:49:54;;;;;;;31.73;21.43;;;;;;;4.92;50.02;101917.49;1613925;88;21082;-72
2022/03/23 00:52:21;;;;;;;30.67;22.57;;;;;;;4.79;50.24;101916.70;1644080;85;21219;-72
2022/03/23 00:54:47;;;;;;;42.87;23.47;;;;;;;4.66;50.67;101912.78;1613511;87;21070;-71
2022/03/23 00:57:15;;;;;;;34.30;22.03;;;;;;;4.52;50.99;101907.64;1663243;84;21039;-71
2022/03/23 00:59:43;;;;;;;;;;;;;;;4.38;51.37;101903.36;1711734;83;21113;-71
2022/03/23 01:02:14;;;;;;;31.77;21.87;;;;;;;4.24;51.70;101899.91;1692162;83;20144;-71
2022/03/23 01:04:43;;;;;;;34.90;22.67;;;;;;;4.08;52.24;101903.25;1706930;83;21019;-71
2022/03/23 01:07:11;;;;;;;33.17;23.10;;;;;;;4.02;52.27;101893.97;1709033;83;21172;-71
2022/03/23 01:09:39;;;;;;;39.53;24.20;;;;;;;3.94;52.54;101894.13;1684544;83;21658;-71
2022/03/23 01:12:08;;;;;;;37.67;25.27;;;;;;;3.86;52.72;101888.06;1714907;82;21061;-71
2022/03/23 01:14:35;;;;;;;33.80;23.93;;;;;;;3.79;52.93;101884.19;1719196;82;21045;-71
2022/03/23 01:17:03;;;;;;;36.90;24.07;;;;;;;3.72;53.15;101886.88;1715989;82;21086;-71
2022/03/23 01:19:32;;;;;;;31.87;24.30;;;;;;;3.64;53.28;101877.69;1716904;82;21061;-71
2022/03/23 01:22:02;;;;;;;33.00;24.10;;;;;;;3.61;53.60;101883.65;1720221;82;21080;-71
2022/03/23 01:24:29;;;;;;;39.80;23.67;;;;;;;3.59;53.70;101880.28;1719289;82;21088;-71
2022/03/23 01:26:57;;;;;;;35.50;23.10;;;;;;;3.60;53.87;101883.27;1715789;82;21129;-72
2022/03/23 01:29:25;;;;;;;31.30;22.77;;;;;;;3.64;53.92;101879.02;1714971;82;21621;-72
2022/03/23 01:31:53;;;;;;;35.43;22.40;;;;;;;3.67;53.93;101876.63;1711967;82;21096;-72
2022/03/23 01:34:20;;;;;;;34.13;23.43;;;;;;;3.73;53.87;101879.31;1703657;82;21073;-71
2022/03/23 01:36:50;;;;;;;34.57;23.83;;;;;;;3.76;54.04;101885.23;1686913;84;21145;-72
2022/03/23 01:39:19;;;;;;;33.37;24.30;;;;;;;3.79;53.95;101876.28;1652769;85;21079;-71
2022/03/23 01:41:46;;;;;;;36.57;25.53;;;;;;;3.87;54.04;101877.90;1655903;86;21045;-71
2022/03/23 01:44:19;;;;;;;34.27;25.00;;;;;;;3.92;54.04;101878.88;1691069;84;21003;-71
2022/03/23 01:47:04;;;;;;;39.00;25.90;;;;;;;3.98;53.89;101879.31;1698431;83;21129;-71
2022/03/23 01:49:33;;;;;;;44.67;25.63;;;;;;;4.02;53.73;101877.30;1695640;83;21077;-71
2022/03/23 01:52:06;;;;;;;37.43;25.57;;;;;;;4.07;53.58;101873.39;1692713;83;21061;-71
2022/03/23 01:54:35;;;;;;;37.90;26.07;;;;;;;4.12;53.56;101869.09;1687780;83;21537;-71
2022/03/23 01:57:04;;;;;;;39.03;26.13;;;;;;;4.15;53.49;101869.38;1681599;83;21037;-71
2022/03/23 01:59:31;;;;;;;38.40;24.30;;;;;;;4.17;53.42;101865.66;1696380;83;21041;-71
2022/03/23 02:02:00;;;;;;;40.13;26.83;;;;;;;4.18;53.45;101870.00;1728880;81;21551;-71
2022/03/23 02:04:29;;;;;;;40.47;27.03;;;;;;;4.17;53.47;101866.98;1731985;82;21075;-71
2022/03/23 02:06:56;;;;;;;;;;;;;;;4.15;53.49;101869.38;1740181;81;21457;-71
2022/03/23 02:09:26;;;;;;;35.07;27.90;;;;;;;4.12;53.56;101869.09;1736264;80;20138;-72
2022/03/23 02:11:55;;;;;;;39.90;27.00;;;;;;;4.04;53.80;101868.80;1710123;82;21589;-71
2022/03/23 02:14:22;;;;;;;40.63;27.87;;;;;;;4.00;54.00;101865.53;1720382;83;21006;-72
2022/03/23 02:16:51;;;;;;;41.97;28.07;;;;;;;3.94;54.14;101865.97;1710684;83;21096;-71
2022/03/23 02:19:23;;;;;;;39.77;27.57;;;;;;;3.91;54.20;101863.53;1717908;82;21593;-71
2022/03/23 02:21:57;;;;;;;38.07;27.47;;;;;;;3.87;54.20;101855.48;1709044;83;21176;-73
2022/03/23 02:24:28;;;;;;;41.70;28.90;;;;;;;3.86;54.19;101859.05;1663099;85;21067;-72
2022/03/23 02:26:57;;;;;;;42.17;29.20;;;;;;;3.85;54.11;101857.37;1713479;83;21051;-71
2022/03/23 02:29:34;;;;;;;40.73;29.93;;;;;;;3.85;54.23;101860.02;1721784;83;21101;-72
2022/03/23 02:32:02;;;;;;;48.42;30.48;;;;;;;3.82;54.32;101857.58;1665952;85;21011;-71
2022/03/23 02:34:31;;;;;;;44.00;30.30;;;;;;;3.81;54.40;101855.42;1718001;83;21049;-71
2022/03/23 02:36:59;;;;;;;44.63;28.77;;;;;;;3.78;54.66;101852.99;1684862;85;21975;-70
2022/03/23 02:39:26;;;;;;;45.57;31.00;;;;;;;3.79;54.73;101857.81;1700240;83;21079;-72
2022/03/23 02:41:54;;;;;;;;;;;;;;;3.80;54.76;101851.58;1702822;83;21531;-71
2022/03/23 02:44:21;;;;;;;;;;;;;;;3.80;54.91;101850.25;1708047;83;20100;-71
2022/03/23 02:46:48;;;;;;;48.40;28.57;;;;;;;3.75;54.98;101850.59;1726808;82;20663;-71
2022/03/23 02:49:16;;;;;;;48.43;32.70;;;;;;;3.72;55.14;101847.31;1730225;82;21577;-72
2022/03/23 02:51:44;;;;;;;54.87;32.37;;;;;;;3.75;55.28;101842.67;1726978;82;21527;-74
2022/03/23 03:03:30;;;;;;;46.17;31.83;;;;;;;3.89;55.36;101840.38;1719122;82;22385;-73
2022/03/23 03:05:57;;;;;;;44.97;31.20;;;;;;;3.87;55.39;101841.80;1732509;82;21845;-72
2022/03/23 03:08:45;;;;;;;44.53;32.13;;;;;;;3.88;55.38;101836.04;1736081;82;21002;-72
2022/03/23 03:11:12;;;;;;;48.40;31.70;;;;;;;3.88;55.34;101835.59;1719167;82;21071;-72
2022/03/23 03:13:42;;;;;;;46.67;29.67;;;;;;;3.88;55.32;101837.36;1684160;84;21637;-72
2022/03/23 03:16:10;;;;;;;47.03;31.00;;;;;;;3.82;55.49;101841.76;1724665;82;21121;-72
2022/03/23 03:18:40;;;;;;;43.97;31.83;;;;;;;3.76;55.53;101838.23;1726433;82;21050;-72
2022/03/23 03:21:09;;;;;;;47.77;30.03;;;;;;;3.68;55.62;101835.66;1728664;82;21087;-72
2022/03/23 03:23:41;;;;;;;41.97;28.90;;;;;;;3.57;55.76;101832.91;1727464;82;21807;-72
2022/03/23 03:26:11;;;;;;;46.30;31.93;;;;;;;3.47;55.81;101837.98;1722750;82;21125;-72
2022/03/23 03:28:40;;;;;;;45.23;29.57;;;;;;;3.31;56.13;101832.93;1721304;81;21023;-72
2022/03/23 03:31:11;;;;;;;45.17;30.67;;;;;;;3.17;56.26;101831.69;1718501;82;21051;-73
2022/03/23 03:33:38;;;;;;;48.00;30.10;;;;;;;3.03;56.77;101830.45;1720920;82;21074;-72
2022/03/23 03:36:07;;;;;;;50.00;31.40;;;;;;;2.95;57.05;101831.44;1717034;82;21097;-71
2022/03/23 03:38:35;;;;;;;42.17;30.60;;;;;;;2.86;57.16;101827.17;1716044;82;21065;-72
2022/03/23 03:41:05;;;;;;;45.30;29.87;;;;;;;2.81;57.46;101823.15;1727565;82;21003;-73
2022/03/23 03:43:32;;;;;;;42.70;29.57;;;;;;;2.78;57.78;101828.61;1728717;82;21011;-72
2022/03/23 03:46:02;;;;;;;44.57;29.63;;;;;;;2.75;57.93;101821.77;1731066;81;21132;-72
2022/03/23 03:48:29;;;;;;;44.37;30.00;;;;;;;2.72;58.07;101825.42;1727546;82;21019;-72
2022/03/23 03:50:57;;;;;;;39.30;29.03;;;;;;;2.72;58.30;101828.53;1737243;82;21550;-72
2022/03/23 03:53:24;;;;;;;40.43;28.50;;;;;;;2.65;58.49;101822.81;1737006;82;21027;-72
2022/03/23 03:55:52;;;;;;;45.47;29.43;;;;;;;2.63;58.68;101827.82;1731489;82;21093;-71
2022/03/23 03:58:20;;;;;;;43.30;28.50;;;;;;;2.56;59.00;101822.58;1732879;82;21521;-71
2022/03/23 04:00:47;;;;;;;46.73;30.50;;;;;;;2.50;59.16;101823.34;1728918;82;21594;-71
2022/03/23 04:03:15;;;;;;;43.97;28.10;;;;;;;2.46;59.37;101821.85;1724275;82;20991;-71
2022/03/23 04:05:44;;;;;;;45.07;29.47;;;;;;;2.45;59.66;101820.18;1682481;84;20992;-71
2022/03/23 04:10:07;;;;;;;41.13;28.00;;;;;;;2.43;59.89;101822.07;1789915;78;22460;-72
2022/03/23 04:12:35;;;;;;;39.43;27.97;;;;;;;2.39;60.00;101819.72;1676954;83;21273;-71
2022/03/23 04:15:09;;;;;;;45.23;29.63;;;;;;;2.38;60.15;101820.20;1668563;84;21026;-72
2022/03/23 04:17:37;;;;;;;50.57;30.90;;;;;;;2.41;60.18;101816.06;1658972;85;21372;-72
2022/03/23 04:20:08;;;;;;;50.17;29.83;;;;;;;2.52;60.37;101812.72;1649374;85;21017;-72
2022/03/23 04:22:34;;;;;;;46.37;30.80;;;;;;;2.73;60.34;101816.59;1641429;85;21105;-72
2022/03/23 04:25:01;;;;;;;;;;;;;;;3.02;59.83;101806.38;1621252;86;21667;-72
2022/03/23 04:27:29;;;;;;;40.65;28.47;;;;;;;3.34;59.12;101804.19;1624325;86;20604;-72
2022/03/23 04:29:56;;;;;;;;;;;;;;;3.65;58.67;101804.21;1633945;86;21366;-72
2022/03/23 04:32:22;;;;;;;42.33;28.17;;;;;;;4.09;57.80;101804.67;1619592;86;20143;-71
2022/03/23 04:34:51;;;;;;;48.53;31.43;;;;;;;4.49;56.41;101797.33;1671991;83;21032;-72
2022/03/23 04:37:17;;;;;;;45.28;30.15;;;;;;;5.00;55.32;101798.84;1678516;84;21025;-73
2022/03/23 04:39:46;;;;;;;38.17;28.87;;;;;;;5.51;53.89;101798.92;1683050;83;21553;-73
2022/03/23 04:42:13;;;;;;;44.20;30.33;;;;;;;6.02;52.67;101801.08;1675234;84;21079;-72
2022/03/23 04:44:40;;;;;;;39.17;27.37;;;;;;;6.57;51.39;101802.41;1673304;83;21160;-72
2022/03/23 04:47:07;;;;;;;37.67;26.83;;;;;;;7.16;49.85;101802.35;1655296;85;21021;-73
2022/03/23 04:49:36;;;;;;;40.37;28.37;;;;;;;7.72;48.24;101801.57;1649134;85;21030;-72
2022/03/23 04:52:04;;;;;;;38.50;27.03;;;;;;;8.28;46.63;101803.69;1620715;87;21041;-72
2022/03/23 04:54:31;;;;;;;40.30;28.33;;;;;;;8.78;45.26;101794.81;1622672;87;21012;-73
2022/03/23 04:56:57;;;;;;;;;;;;;;;9.24;44.08;101803.00;1666647;84;21386;-73
2022/03/23 04:59:27;;;;;;;;;;;;;;;9.65;43.25;101798.25;1671575;85;20160;-73
2022/03/23 05:01:55;;;;;;;40.93;27.93;;;;;;;9.97;42.41;101798.31;1673249;84;20167;-73
2022/03/23 05:04:23;;;;;;;40.73;27.93;;;;;;;10.28;41.57;101801.01;1677975;84;21086;-73
2022/03/23 05:06:49;;;;;;;33.20;26.23;;;;;;;10.66;40.90;101799.06;1676886;84;21002;-73
2022/03/23 05:09:18;;;;;;;39.00;27.60;;;;;;;11.02;40.15;101798.16;1674924;84;21388;-73
2022/03/23 05:11:47;;;;;;;34.63;26.23;;;;;;;11.34;39.26;101793.56;1659404;84;21506;-73
2022/03/23 05:14:16;;;;;;;37.90;26.20;;;;;;;11.63;38.69;101794.55;1661399;85;21130;-73
2022/03/23 05:16:44;;;;;;;32.33;25.08;;;;;;;11.91;38.15;101792.20;1656369;84;21070;-73
2022/03/23 05:19:11;;;;;;;39.57;27.03;;;;;;;12.18;37.60;101791.93;1663277;85;21156;-74
2022/03/23 05:21:40;;;;;;;35.45;26.82;;;;;;;12.52;36.94;101794.17;1667175;85;21112;-74
2022/03/23 05:24:08;;;;;;;35.78;27.17;;;;;;;12.87;36.34;101786.84;1665059;84;21483;-74
2022/03/23 05:26:36;;;;;;;33.08;25.48;;;;;;;13.16;36.07;101792.48;1670473;84;21090;-70
2022/03/23 05:29:04;;;;;;;32.20;25.60;;;;;;;13.54;35.47;101789.25;1660768;85;22843;-70
2022/03/23 05:31:31;;;;;;;29.67;23.20;;;;;;;13.90;35.06;101790.11;1658888;85;21162;-69
2022/03/23 05:33:58;;;;;;;31.87;24.92;;;;;;;14.19;34.61;101790.29;1639354;85;21084;-69
2022/03/23 05:36:24;;;;;;;30.10;22.82;;;;;;;14.55;33.95;101794.26;1609807;87;21115;-71
2022/03/23 05:38:53;;;;;;;34.35;21.70;;;;;;;14.82;33.02;101784.01;1611261;87;21675;-70
2022/03/23 05:41:22;;;;;;;29.55;21.27;;;;;;;15.05;32.52;101780.79;1612678;87;21107;-71
2022/03/23 05:43:50;;;;;;;31.55;21.48;;;;;;;15.23;32.20;101780.42;1614205;87;21069;-70
2022/03/23 05:46:17;;;;;;;27.25;20.60;;;;;;;15.44;31.55;101776.17;1607150;87;21090;-70
2022/03/23 05:48:44;;;;;;;27.65;21.12;;;;;;;15.72;30.76;101772.31;1607170;87;21540;-69
2022/03/23 05:51:11;;;;;;;31.42;21.30;;;;;;;15.92;29.99;101775.30;1611143;87;21175;-69
2022/03/23 05:53:40;;;;;;;30.02;20.52;;;;;;;16.13;29.91;101778.53;1613697;87;21075;-70
2022/03/23 05:56:08;;;;;;;26.65;20.37;;;;;;;16.30;29.57;101772.40;1616549;87;21568;-82
2022/03/23 05:58:35;;;;;;;29.30;22.05;;;;;;;16.43;29.14;101769.84;1615193;86;21151;-70
2022/03/23 06:01:03;;;;;;;30.65;25.57;;;;;;;16.48;28.55;101770.59;1659278;85;21092;-72
2022/03/23 06:03:31;;;;;;;38.35;29.95;;;;;;;16.55;27.32;101768.80;1639957;85;21074;-70
2022/03/23 06:05:58;;;;;;;37.50;28.98;;;;;;;16.52;26.63;101770.03;1638584;85;21083;-70
2022/03/23 06:08:25;;;;;;;34.10;28.60;;;;;;;16.07;27.54;101772.05;1649596;85;21382;-70
2022/03/23 06:10:52;;;;;;;35.95;30.97;;;;;;;15.80;27.95;101772.75;1664443;85;21137;-69
2022/03/23 06:13:20;;;;;;;38.45;31.52;;;;;;;15.71;28.73;101768.80;1652894;85;21083;-72
2022/03/23 06:15:47;;;;;;;40.75;32.42;;;;;;;16.05;27.76;101762.48;1651188;85;21767;-70
2022/03/23 06:18:16;;;;;;;42.03;34.00;;;;;;;16.31;27.90;101764.14;1653262;85;21087;-70
2022/03/23 06:20:43;;;;;;;40.55;34.67;;;;;;;16.55;27.22;101761.55;1648385;85;21009;-70
2022/03/23 06:23:13;;;;;;;41.40;35.92;;;;;;;16.59;26.84;101765.22;1656076;85;21009;-69
2022/03/23 06:25:40;;;;;;;48.92;41.02;;;;;;;16.21;27.35;101757.40;1654079;85;21521;-69
2022/03/23 06:28:08;;;;;;;63.10;49.88;;;;;;;15.93;27.77;101758.12;1646572;85;21159;-69
2022/03/23 06:30:35;;;;;;;62.15;53.85;;;;;;;15.91;27.54;101757.48;1656641;85;21043;-70
2022/03/23 06:33:04;;;;;;;63.87;55.70;;;;;;;16.06;26.96;101755.58;1653232;85;22168;-67
2022/03/23 06:35:32;;;;;;;72.95;61.35;;;;;;;16.21;26.63;101756.05;1647613;85;21564;-71
2022/03/23 06:38:00;;;;;;;66.47;58.60;;;;;;;16.32;26.63;101750.99;1655881;85;21085;-73
2022/03/23 06:40:26;;;;;;;71.17;60.55;;;;;;;16.53;26.30;101751.50;1646204;85;21128;-71
2022/03/23 06:42:53;;;;;;;72.50;63.90;;;;;;;16.70;26.07;101748.02;1642615;85;21011;-70
2022/03/23 06:45:21;;;;;;;74.82;64.35;;;;;;;16.77;26.06;101741.87;1632555;85;21202;-70
2022/03/23 06:47:47;;;;;;;72.85;63.55;;;;;;;16.72;25.93;101741.92;1622772;86;21061;-70
2022/03/23 06:50:14;;;;;;;71.05;63.05;;;;;;;16.36;26.06;101747.41;1629446;86;21119;-70
2022/03/23 06:52:41;;;;;;;77.50;67.62;;;;;;;15.54;27.03;101749.36;1625133;86;21373;-71
2022/03/23 06:55:09;;;;;;;73.20;62.60;;;;;;;14.78;28.10;101748.13;1630248;86;21087;-72
2022/03/23 06:57:37;;;;;;;77.17;64.58;;;;;;;14.15;29.29;101754.12;1634916;86;21059;-71
2022/03/23 07:00:12;;;;;;;76.92;67.35;;;;;;;13.65;30.10;101757.23;1644648;86;21392;-67
2022/03/23 07:02:36;;;;;;;79.40;65.08;;;;;;;13.32;30.80;101752.00;1652943;84;22244;-70
2022/03/23 07:05:04;;;;;;;79.00;68.95;;;;;;;12.97;31.50;101744.67;1644907;85;21056;-69
2022/03/23 07:07:31;;;;;;;82.05;69.05;;;;;;;12.51;32.10;101742.53;1661005;85;21050;-69
2022/03/23 07:10:00;;;;;;;88.37;72.17;;;;;;;12.16;33.13;101749.83;1662034;85;21138;-70
2022/03/23 07:12:29;;;;;;;88.78;73.65;;;;;;;11.96;33.31;101743.95;1654765;85;21540;-70
2022/03/23 07:14:58;;;;;;;83.70;72.03;;;;;;;11.86;33.60;101737.87;1664179;84;21104;-69
2022/03/23 07:17:26;;;;;;;86.08;75.20;;;;;;;11.84;33.61;101746.04;1652376;85;21032;-70
2022/03/23 07:19:55;;;;;;;88.30;76.12;;;;;;;11.87;33.74;101739.55;1659627;85;21045;-69
2022/03/23 07:22:22;;;;;;;88.82;74.58;;;;;;;11.91;34.08;101744.11;1642268;85;21269;-72
2022/03/23 07:24:49;;;;;;;88.75;76.77;;;;;;;11.83;34.16;101739.04;1647077;85;21140;-70
2022/03/23 07:27:17;;;;;;;91.35;76.80;;;;;;;11.78;34.21;101737.85;1640310;85;21128;-69
2022/03/23 07:29:44;;;;;;;89.50;76.30;;;;;;;11.72;34.44;101739.34;1641012;85;21629;-70
2022/03/23 07:32:12;;;;;;;94.77;79.57;;;;;;;11.73;34.61;101737.49;1641365;85;21025;-70
2022/03/23 07:34:39;;;;;;;90.07;79.67;;;;;;;11.79;34.32;101735.03;1640310;85;21099;-70
2022/03/23 07:37:06;;;;;;;97.73;86.20;;;;;;;11.87;34.29;101739.05;1649729;85;21588;-70
2022/03/23 07:39:35;;;;;;;97.12;84.83;;;;;;;11.90;34.10;101739.23;1652806;85;21080;-71
2022/03/23 07:42:03;;;;;;;95.73;85.33;;;;;;;11.91;34.06;101739.59;1656002;85;21060;-69
2022/03/23 07:44:32;;;;;;;104.47;90.23;;;;;;;11.96;33.87;101741.77;1641984;85;21600;-70
2022/03/23 07:47:00;;;;;;;101.67;89.63;;;;;;;12.01;33.90;101740.27;1658075;84;21092;-70
2022/03/23 07:49:27;;;;;;;106.43;93.10;;;;;;;12.08;33.50;101736.46;1668191;84;21259;-70
2022/03/23 07:51:57;;;;;;;102.40;90.80;;;;;;;12.14;33.51;101730.95;1662528;84;21121;-70
2022/03/23 07:54:24;;;;;;;113.30;94.43;;;;;;;12.20;33.42;101737.80;1653745;84;21169;-69
2022/03/23 07:56:51;;;;;;;100.37;86.73;;;;;;;12.30;33.10;101735.00;1646848;84;21931;-70
2022/03/23 07:59:18;;;;;;;102.50;89.72;;;;;;;12.37;33.02;101725.80;1642987;85;21565;-70
2022/03/23 08:01:45;;;;;;;104.23;87.78;;;;;;;12.44;33.09;101721.46;1648452;85;21073;-70
2022/03/23 08:04:12;;;;;;;106.27;89.27;;;;;;;12.53;32.99;101716.96;1642376;85;21431;-71
2022/03/23 08:06:39;;;;;;;103.10;89.62;;;;;;;12.65;32.99;101715.09;1649702;85;21098;-70
2022/03/23 08:09:07;;;;;;;100.00;88.90;;;;;;;12.79;32.92;101714.94;1646829;85;21055;-69
2022/03/23 08:11:36;;;;;;;99.77;83.05;;;;;;;12.97;32.78;101713.89;1646120;85;21142;-69
2022/03/23 08:14:03;;;;;;;95.77;82.47;;;;;;;13.11;32.63;101712.34;1645175;85;21530;-71
2022/03/23 08:16:30;;;;;;;94.03;82.42;;;;;;;13.18;32.29;101707.47;1648831;85;21083;-70
2022/03/23 08:19:00;;;;;;;95.03;77.90;;;;;;;13.24;32.48;101711.30;1643910;85;21149;-69
2022/03/23 08:21:28;;;;;;;88.12;75.35;;;;;;;13.34;32.43;101710.64;1646462;84;21108;-70
2022/03/23 08:23:57;;;;;;;97.15;75.65;;;;;;;13.46;32.37;101704.91;1641485;85;21035;-69
2022/03/23 08:26:25;;;;;;;85.87;71.97;;;;;;;13.59;32.28;101707.86;1641711;85;21103;-70
2022/03/23 08:28:53;;;;;;;77.35;67.55;;;;;;;13.73;32.09;101697.75;1643603;84;21130;-69
2022/03/23 08:31:20;;;;;;;79.03;70.35;;;;;;;13.84;32.00;101697.84;1634428;85;21067;-70
2022/03/23 08:33:49;;;;;;;79.27;68.30;;;;;;;13.93;32.01;101694.61;1650864;84;21114;-70
2022/03/23 08:36:16;;;;;;;85.65;73.30;;;;;;;14.01;32.05;101692.72;1678200;84;21542;-70
2022/03/23 08:38:45;;;;;;;84.50;73.72;;;;;;;14.13;31.60;101693.14;1676400;84;21106;-69
2022/03/23 08:41:13;;;;;;;88.62;78.47;;;;;;;14.23;31.51;101689.39;1672928;84;21043;-69
2022/03/23 08:43:41;;;;;;;89.92;78.90;;;;;;;14.27;31.26;101690.69;1676146;84;21018;-71
2022/03/23 08:46:08;;;;;;;78.83;67.53;;;;;;;14.33;31.21;101680.06;1673822;84;21604;-70
2022/03/23 08:48:38;;;;;;;68.65;60.67;;;;;;;14.45;30.78;101686.34;1678040;84;21033;-70
2022/03/23 08:51:05;;;;;;;67.72;60.38;;;;;;;14.46;30.68;101683.48;1682646;84;21089;-69
2022/03/23 08:53:32;;;;;;;77.72;64.62;;;;;;;14.50;30.89;101676.73;1675800;84;21094;-69
2022/03/23 08:56:00;;;;;;;85.25;68.25;;;;;;;14.59;30.76;101674.33;1680724;84;21180;-71
2022/03/23 08:58:29;;;;;;;92.02;71.53;;;;;;;14.66;30.58;101674.45;1676368;84;21756;-69
2022/03/23 09:00:56;;;;;;;94.67;72.32;;;;;;;14.71;30.51;101671.20;1681743;84;21037;-69
2022/03/23 09:03:24;;;;;;;99.37;73.02;;;;;;;14.50;30.45;101621.73;1676883;84;21086;-70
2022/03/23 09:05:52;;;;;;;93.42;72.50;;;;;;;14.87;30.21;101665.67;1680712;84;21079;-71
2022/03/23 09:08:22;;;;;;;97.80;69.85;;;;;;;14.95;30.13;101664.23;1681647;84;21063;-71
2022/03/23 09:10:51;;;;;;;86.10;61.65;;;;;;;15.08;29.98;101656.87;1671675;84;21078;-71
2022/03/23 09:13:20;;;;;;;80.38;56.40;;;;;;;15.22;29.92;101651.68;1673632;84;21089;-70
2022/03/23 09:15:47;;;;;;;72.00;52.17;;;;;;;15.32;29.60;101648.20;1685320;84;21182;-70
2022/03/23 09:18:14;;;;;;;52.38;36.10;;;;;;;15.36;29.45;101646.29;1673646;84;21577;-70
2022/03/23 09:20:41;;;;;;;40.03;31.40;;;;;;;15.41;29.25;101651.60;1671363;84;21135;-70
2022/03/23 09:23:10;;;;;;;41.55;30.25;;;;;;;15.42;28.89;101641.19;1673731;84;21069;-70
2022/03/23 09:25:43;;;;;;;37.70;30.30;;;;;;;15.37;28.77;101635.88;1680200;84;21166;-73
2022/03/23 09:28:09;;;;;;;39.85;28.77;;;;;;;15.35;28.80;101638.41;1679968;84;21167;-70
2022/03/23 09:30:37;;;;;;;33.28;24.82;;;;;;;15.32;28.92;101634.78;1683572;84;21149;-70
2022/03/23 09:33:07;;;;;;;41.15;28.00;;;;;;;15.33;28.72;101631.91;1676097;84;21025;-70
2022/03/23 09:35:34;;;;;;;31.68;25.90;;;;;;;15.32;28.86;101630.75;1673334;84;21050;-70
2022/03/23 09:38:04;;;;;;;29.67;20.90;;;;;;;15.27;28.88;101629.13;1673269;84;21545;-71
2022/03/23 09:40:31;;;;;;;20.92;14.85;;;;;;;15.21;28.90;101621.83;1668793;84;21097;-70
2022/03/23 09:43:12;;;;;;;12.98;11.00;;;;;;;15.21;28.93;101621.83;1678536;84;21073;-70
2022/03/23 09:48:12;;;;;;;12.47;9.13;;;;;;;15.19;28.73;101613.44;1670736;84;21046;-71
2022/03/23 09:50:45;;;;;;;9.85;8.43;;;;;;;15.17;28.89;101614.13;1671106;84;21101;-71
2022/03/23 09:53:13;;;;;;;9.75;8.20;;;;;;;15.16;28.88;101604.92;1676385;84;21058;-71
2022/03/23 09:55:42;;;;;;;9.73;7.80;;;;;;;15.15;28.90;101597.90;1676799;84;21085;-71
2022/03/23 09:58:24;;;;;;;9.50;6.85;;;;;;;15.15;28.92;101596.03;1655028;85;21169;-70
2022/03/23 10:00:52;;;;;;;8.65;6.72;;;;;;;15.19;28.91;101597.32;1659985;83;21577;-70
2022/03/23 10:03:45;;;;;;;11.22;7.95;;;;;;;15.25;29.10;101589.02;1685427;83;21370;-71
2022/03/23 10:06:33;;;;;;;8.43;7.28;;;;;;;15.34;29.02;101587.89;1684700;83;21022;-71
2022/03/23 10:09:38;;;;;;;12.93;8.53;;;;;;;15.45;28.71;101583.06;1680305;84;21078;-70
2022/03/23 10:13:01;;;;;;;11.18;8.55;;;;;;;15.18;28.85;101528.53;1637919;84;21070;-70
2022/03/23 10:15:55;;;;;;;10.50;8.05;;;;;;;15.61;28.63;101574.73;1656277;85;21024;-71
2022/03/23 10:18:55;;;;;;;13.65;8.63;;;;;;;15.69;28.50;101569.73;1658774;85;21074;-71
2022/03/23 10:21:34;;;;;;;6.33;5.53;;;;;;;15.69;28.52;101566.56;1657833;85;21540;-70
2022/03/23 10:24:07;;;;;;;12.28;7.33;;;;;;;15.61;27.96;101561.81;1655782;85;21108;-73
2022/03/23 10:26:37;;;;;;;10.23;7.72;;;;;;;15.55;28.35;101557.52;1657800;85;21092;-70
2022/03/23 10:29:17;;;;;;;12.47;8.35;;;;;;;15.59;28.30;101547.22;1657080;85;21079;-70
2022/03/23 10:31:44;;;;;;;12.50;7.90;;;;;;;15.64;28.11;101546.66;1631999;85;21805;-70
2022/03/23 10:34:10;;;;;;;9.85;8.03;;;;;;;15.69;28.26;101543.72;1657084;85;21066;-71
2022/03/23 10:36:44;;;;;;;7.97;7.00;;;;;;;15.80;28.44;101538.34;1658107;85;21117;-71
2022/03/23 10:39:12;;;;;;;9.13;6.45;;;;;;;15.92;28.00;101531.95;1656066;85;21031;-71
2022/03/23 10:41:39;;;;;;;7.42;6.65;;;;;;;15.90;28.03;101528.11;1656900;85;21535;-70
2022/03/23 10:44:19;;;;;;;7.42;5.37;;;;;;;15.91;28.07;101520.86;1658220;85;21110;-70
2022/03/23 10:46:48;;;;;;;13.55;8.28;;;;;;;15.99;28.07;101518.02;1662215;84;21092;-71
2022/03/23 10:49:18;;;;;;;15.00;10.45;;;;;;;16.13;28.01;101516.28;1672618;84;21663;-70
2022/03/23 10:51:45;;;;;;;10.80;7.87;;;;;;;16.23;27.44;101511.89;1667793;84;21008;-70
2022/03/23 10:54:19;;;;;;;7.50;5.00;;;;;;;16.26;27.24;101514.20;1672498;84;21100;-70
2022/03/23 10:56:46;;;;;;;10.25;6.50;;;;;;;16.20;26.61;101508.23;1671641;84;21137;-69
2022/03/23 10:59:22;;;;;;;9.10;6.80;;;;;;;16.07;26.82;101501.75;1648928;86;21095;-70
2022/03/23 11:02:04;;;;;;;11.43;6.15;;;;;;;15.95;26.93;101496.09;1669122;84;20992;-70
2022/03/23 11:04:53;;;;;;;12.68;10.32;;;;;;;15.85;27.32;101484.83;1667219;84;21025;-71
2022/03/23 11:07:31;;;;;;;15.28;13.05;;;;;;;15.81;27.63;101488.13;1670333;84;21382;-71
2022/03/23 11:15:53;;;;;;;27.98;20.95;;;;;;;15.85;28.11;101473.26;1668774;84;21055;-70
2022/03/23 11:18:21;;;;;;;33.08;23.05;;;;;;;15.80;28.34;101462.25;1667975;84;21094;-70
2022/03/23 11:20:56;;;;;;;37.33;25.50;;;;;;;15.75;28.48;101462.84;1671659;84;21576;-70
2022/03/23 11:23:37;;;;;;;30.80;22.98;;;;;;;15.79;28.57;101455.23;1668325;84;21140;-69
2022/03/23 11:26:11;;;;;;;31.27;22.85;;;;;;;15.87;28.74;101452.38;1660015;84;21941;-72
2022/03/23 11:28:43;;;;;;;34.10;24.52;;;;;;;15.98;28.69;101451.84;1667335;84;21484;-71
2022/03/23 11:31:13;;;;;;;44.83;24.72;;;;;;;16.08;28.48;101444.23;1671494;84;20972;-71
2022/03/23 11:33:50;;;;;;;35.80;24.32;;;;;;;16.14;28.38;101438.58;1671539;84;21001;-71
2022/03/23 11:36:19;;;;;;;33.92;23.05;;;;;;;16.22;28.26;101432.20;1670005;84;21029;-71
2022/03/23 11:38:52;;;;;;;32.28;24.07;;;;;;;16.22;28.26;101432.20;1671347;84;22293;-70
2022/03/23 11:41:20;;;;;;;32.17;24.12;;;;;;;16.22;28.36;101432.20;1671689;84;21090;-70
2022/03/23 11:43:47;;;;;;;31.93;22.60;;;;;;;16.19;28.15;101429.93;1674824;84;21040;-71
2022/03/23 11:46:14;;;;;;;32.53;23.02;;;;;;;16.13;28.21;101424.30;1664895;84;21095;-69